Forside
METAR-TAF:

METAR-TAF

Lufthavne :

Wittman Regional Airport

Oshkosh, Wisconsin, USA

Breddekreds: 43-58-00N, længdekreds: 088-33-29W, højde: 246 m

Aktuelle vejr

Denne rapport blev lavet for 15 minutter siden, kl. 21:53 UTC
Vind 5 kt fra nord
Temperatur 14°C
Fugtighed 38%
Tryk 1019 hPa
Sigt: 16.1 km
Spredte skyer i en højde af 7000 ft

METAR: KOSH 052153Z 36005KT 10SM SCT070 14/00 A3009 RMK AO2 SLP191 T01440000

Tid: 17:08 (22:08 UTC)


TAF: fraværende

Vejrobservationer og prognoser fra mere end 4000 lufthavne (METAR og TAF).

De gule og røde prikker repræsenterer de meteorologiske stationer.

Flyt musen over at se navnet på stationen.

Så klik over at se vejr observationer og prognoser.

At skifte det kort: Klik på de grønne knapper med et sort kors for at zoome ind; på den grønne knap med en bindestreg for at zoome ud; eller på de grønne pile for tilstødende kort.


METAR-TAF: